createdAt,value
2023-03-03T00:04:11.390Z,9.80
2023-03-03T00:09:16.073Z,9.67
2023-03-03T00:14:24.189Z,9.33
2023-03-03T00:19:27.488Z,8.20
2023-03-03T00:24:38.434Z,9.80
2023-03-03T00:29:46.276Z,9.10
2023-03-03T00:34:50.167Z,8.30
2023-03-03T00:39:54.971Z,8.97
2023-03-03T00:44:59.515Z,9.03
2023-03-03T00:50:28.131Z,9.23
2023-03-03T00:55:34.332Z,9.07
2023-03-03T01:00:38.282Z,9.67
2023-03-03T01:05:41.926Z,9.03
2023-03-03T01:10:51.013Z,10.73
2023-03-03T01:15:55.128Z,9.57
2023-03-03T01:20:58.494Z,9.80
2023-03-03T01:26:03.308Z,11.33
2023-03-03T01:31:07.426Z,10.63
2023-03-03T01:36:11.103Z,11.67
2023-03-03T01:41:15.827Z,11.73
2023-03-03T01:46:46.119Z,8.93
2023-03-03T01:51:53.492Z,10.63
2023-03-03T01:57:02.615Z,9.53
2023-03-03T02:02:06.379Z,10.33
2023-03-03T02:07:11.758Z,10.70
2023-03-03T02:12:20.259Z,10.53
2023-03-03T02:17:23.733Z,9.90
2023-03-03T02:22:37.417Z,9.97
2023-03-03T02:27:42.242Z,11.53
2023-03-03T02:32:45.514Z,8.97
2023-03-03T02:37:48.848Z,10.23
2023-03-03T02:42:55.280Z,9.47
2023-03-03T02:47:58.564Z,11.83
2023-03-03T02:53:01.816Z,9.90
2023-03-03T02:58:06.552Z,9.63
2023-03-03T03:03:09.921Z,12.20
2023-03-03T03:08:13.210Z,11.23
2023-03-03T03:13:18.111Z,10.87
2023-03-03T03:18:21.717Z,10.23
2023-03-03T03:23:25.050Z,10.53
2023-03-03T03:28:29.931Z,12.60
2023-03-03T03:33:33.732Z,13.37
2023-03-03T03:38:37.905Z,11.13
2023-03-03T03:43:42.663Z,9.43
2023-03-03T03:48:46.614Z,10.07
2023-03-03T03:53:49.911Z,10.90
2023-03-03T03:58:54.612Z,11.50
2023-03-03T04:03:57.949Z,11.43
2023-03-03T04:09:01.256Z,9.33
2023-03-03T04:14:06.398Z,10.20
2023-03-03T04:19:09.708Z,9.67
2023-03-03T04:24:13.009Z,9.60
2023-03-03T04:29:17.697Z,9.73
2023-03-03T04:34:21.019Z,10.57
2023-03-03T04:39:24.446Z,11.57
2023-03-03T04:44:29.185Z,9.87
2023-03-03T04:49:32.509Z,10.77
2023-03-03T04:54:35.920Z,12.27
2023-03-03T04:59:40.617Z,12.10
2023-03-03T05:04:44.055Z,10.40
2023-03-03T05:09:47.441Z,12.40
2023-03-03T05:14:52.155Z,11.77
2023-03-03T05:19:57.342Z,12.60
2023-03-03T05:25:00.595Z,10.73
2023-03-03T05:30:06.000Z,11.47
2023-03-03T05:35:09.887Z,12.40
2023-03-03T05:40:14.549Z,12.70
2023-03-03T05:45:21.339Z,12.40
2023-03-03T05:50:25.366Z,13.47
2023-03-03T05:55:28.715Z,12.57
2023-03-03T06:00:33.556Z,11.27
2023-03-03T06:05:37.425Z,10.60
2023-03-03T06:10:40.764Z,12.13
2023-03-03T06:15:45.665Z,12.37
2023-03-03T06:20:53.694Z,11.13
2023-03-03T06:25:57.213Z,12.13
2023-03-03T06:31:01.955Z,11.80
2023-03-03T06:36:05.923Z,10.40
2023-03-03T06:41:09.225Z,10.83
2023-03-03T06:46:14.006Z,10.47
2023-03-03T06:51:24.820Z,10.90
2023-03-03T06:56:28.969Z,11.53
2023-03-03T07:01:37.558Z,11.67
2023-03-03T07:06:40.884Z,10.53
2023-03-03T07:11:46.603Z,10.33
2023-03-03T07:16:57.823Z,11.67
2023-03-03T07:22:07.919Z,10.73
2023-03-03T07:27:15.060Z,11.50
2023-03-03T07:32:28.636Z,11.53
2023-03-03T07:37:36.905Z,10.77
2023-03-03T07:42:44.332Z,10.23
2023-03-03T07:47:49.675Z,10.90
2023-03-03T07:52:58.101Z,15.77
2023-03-03T07:58:18.522Z,10.00
2023-03-03T08:03:23.567Z,12.93
2023-03-03T08:08:31.788Z,12.17
2023-03-03T08:13:39.582Z,11.70
2023-03-03T08:18:47.816Z,11.07
2023-03-03T08:23:53.373Z,9.90
2023-03-03T08:28:56.826Z,8.70
2023-03-03T08:34:01.813Z,11.97
2023-03-03T08:39:06.302Z,11.90
2023-03-03T08:44:09.557Z,9.80
2023-03-03T08:49:14.239Z,10.43
2023-03-03T08:54:17.525Z,10.50
2023-03-03T08:59:22.424Z,11.40
2023-03-03T09:04:27.720Z,12.33
2023-03-03T09:09:31.119Z,10.53
2023-03-03T09:14:34.468Z,8.80
2023-03-03T09:19:39.638Z,10.97
2023-03-03T09:24:44.177Z,10.67
2023-03-03T09:29:48.662Z,12.93
2023-03-03T09:34:53.409Z,10.20
2023-03-03T09:39:58.666Z,9.40
2023-03-03T09:45:37.406Z,12.27
2023-03-03T09:50:52.859Z,10.53
2023-03-03T09:56:00.693Z,11.47
2023-03-03T10:01:23.188Z,9.97
2023-03-03T10:06:32.943Z,10.23
2023-03-03T10:11:42.994Z,10.67
2023-03-03T10:17:10.028Z,13.83
2023-03-03T10:22:21.199Z,12.00
2023-03-03T10:27:43.255Z,11.87
2023-03-03T10:32:54.706Z,10.83
2023-03-03T10:38:14.916Z,12.20
2023-03-03T10:43:34.344Z,11.43
2023-03-03T10:49:02.328Z,11.77
2023-03-03T10:54:19.085Z,10.53
2023-03-03T10:59:38.648Z,13.00
2023-03-03T11:05:03.876Z,14.47
2023-03-03T11:10:25.679Z,12.73
2023-03-03T11:15:41.413Z,13.43
2023-03-03T11:20:51.087Z,11.63
2023-03-03T11:26:08.996Z,14.93
2023-03-03T11:31:22.531Z,16.83
2023-03-03T11:36:34.840Z,12.13
2023-03-03T11:41:42.533Z,17.43
2023-03-03T11:46:50.769Z,13.77
2023-03-03T11:52:06.520Z,13.07
2023-03-03T11:57:20.064Z,14.30
2023-03-03T12:02:52.398Z,15.70
2023-03-03T12:08:05.011Z,15.63
2023-03-03T12:13:16.015Z,12.47
2023-03-03T12:19:01.389Z,13.07
2023-03-03T12:24:23.441Z,14.50
2023-03-03T12:29:39.289Z,14.77
2023-03-03T12:34:52.955Z,16.37
2023-03-03T12:40:06.549Z,16.77
2023-03-03T12:45:24.182Z,13.73
2023-03-03T12:50:37.638Z,15.43
2023-03-03T12:55:50.510Z,14.07
2023-03-03T13:01:02.110Z,14.70
2023-03-03T13:06:12.364Z,14.83
2023-03-03T13:11:44.178Z,14.47
2023-03-03T13:16:56.995Z,16.53
2023-03-03T13:22:08.700Z,14.33
2023-03-03T13:27:15.546Z,13.83
2023-03-03T13:32:23.507Z,16.00
2023-03-03T13:37:32.050Z,16.07
2023-03-03T13:42:41.934Z,14.97
2023-03-03T13:47:54.383Z,15.73
2023-03-03T13:53:27.123Z,15.47
2023-03-03T13:58:38.654Z,18.17
2023-03-03T14:04:15.362Z,15.43
2023-03-03T14:09:44.165Z,15.13
2023-03-03T14:14:58.476Z,17.70
2023-03-03T14:20:16.952Z,17.27
2023-03-03T14:25:20.581Z,23.90
2023-03-03T14:30:30.298Z,22.67
2023-03-03T14:35:36.964Z,21.83
2023-03-03T14:40:43.118Z,22.87
2023-03-03T14:45:46.451Z,21.63
2023-03-03T14:50:53.747Z,23.20
2023-03-03T14:55:57.129Z,23.70
2023-03-03T15:01:15.502Z,25.07
2023-03-03T15:06:42.995Z,24.33
2023-03-03T15:11:46.347Z,23.47
2023-03-03T15:16:49.742Z,24.17
2023-03-03T15:22:03.576Z,23.10
2023-03-03T15:27:13.681Z,24.03
2023-03-03T15:32:27.995Z,27.37
2023-03-03T15:37:43.567Z,25.57
2023-03-03T15:42:51.231Z,29.30
2023-03-03T15:48:18.337Z,26.80
2023-03-03T15:53:59.510Z,26.70
2023-03-03T15:59:51.244Z,23.63
2023-03-03T16:05:04.625Z,23.23
2023-03-03T16:10:19.805Z,23.00
2023-03-03T16:15:39.497Z,23.70
2023-03-03T16:20:52.851Z,24.87
2023-03-03T16:26:27.400Z,24.63
2023-03-03T16:31:37.338Z,25.77
2023-03-03T16:36:55.806Z,23.03
2023-03-03T16:42:07.471Z,22.83
2023-03-03T16:47:30.263Z,32.73
2023-03-03T16:52:40.272Z,26.13
2023-03-03T16:57:53.171Z,27.20
2023-03-03T17:03:21.798Z,28.30
2023-03-03T17:09:01.256Z,24.57
2023-03-03T17:14:37.260Z,23.77
2023-03-03T17:19:58.680Z,31.43
2023-03-03T17:25:13.978Z,32.00
2023-03-03T17:30:25.571Z,27.97
2023-03-03T17:35:48.682Z,29.67
2023-03-03T17:41:05.827Z,27.57
2023-03-03T17:46:19.313Z,27.97
2023-03-03T17:51:57.805Z,28.10
2023-03-03T17:57:13.861Z,27.63
2023-03-03T18:02:55.969Z,27.80
2023-03-03T18:08:14.986Z,27.40
2023-03-03T18:13:39.722Z,29.30
2023-03-03T18:19:02.920Z,28.33
2023-03-03T18:24:31.490Z,27.13
2023-03-03T18:29:35.750Z,25.53
2023-03-03T18:34:45.684Z,31.77
2023-03-03T18:39:51.993Z,35.30
2023-03-03T18:44:56.576Z,28.30
2023-03-03T18:50:16.603Z,27.37
2023-03-03T18:55:28.477Z,27.00
2023-03-03T19:00:33.773Z,26.77
2023-03-03T19:05:52.013Z,27.37
2023-03-03T19:10:59.605Z,27.83
2023-03-03T19:16:04.921Z,24.33
2023-03-03T19:21:22.594Z,27.70
2023-03-03T19:26:56.763Z,26.00
2023-03-03T19:32:13.106Z,26.73
2023-03-03T19:37:37.323Z,24.70
2023-03-03T19:42:48.186Z,26.77
2023-03-03T19:48:04.350Z,21.93
2023-03-03T19:53:23.973Z,24.47
2023-03-03T19:58:38.779Z,28.10
2023-03-03T20:04:19.266Z,27.43
2023-03-03T20:09:36.468Z,27.10
2023-03-03T20:14:46.540Z,27.03
2023-03-03T20:19:58.024Z,27.03
2023-03-03T20:25:15.055Z,25.00
2023-03-03T20:30:39.202Z,27.73
2023-03-03T20:35:57.610Z,25.00
2023-03-03T20:41:14.593Z,27.07
2023-03-03T20:46:24.404Z,26.40
2023-03-03T20:51:38.794Z,28.57
2023-03-03T20:56:52.526Z,26.87
2023-03-03T21:02:07.096Z,23.63
2023-03-03T21:07:26.502Z,22.43
2023-03-03T21:12:33.657Z,26.73
2023-03-03T21:17:42.365Z,24.40
2023-03-03T21:22:50.315Z,25.13
2023-03-03T21:28:17.079Z,27.33
2023-03-03T21:33:45.354Z,24.73
2023-03-03T21:38:49.193Z,24.93
2023-03-03T21:43:55.206Z,25.30
2023-03-03T21:48:58.966Z,21.90
2023-03-03T21:54:02.185Z,23.53
2023-03-03T21:59:06.907Z,27.67
2023-03-03T22:04:10.204Z,24.40
2023-03-03T22:09:13.467Z,23.50
2023-03-03T22:14:18.324Z,23.17
2023-03-03T22:19:21.729Z,27.43
2023-03-03T22:24:24.954Z,20.17
2023-03-03T22:29:29.573Z,26.07
2023-03-03T22:34:32.794Z,24.33
2023-03-03T22:39:36.015Z,25.73
2023-03-03T22:44:41.115Z,27.27
2023-03-03T22:49:44.329Z,28.10
2023-03-03T22:54:47.554Z,26.90
2023-03-03T22:59:52.590Z,28.77
2023-03-03T23:05:01.041Z,28.37
2023-03-03T23:10:04.959Z,29.90
2023-03-03T23:15:13.440Z,30.17
2023-03-03T23:20:19.123Z,27.50
2023-03-03T23:25:23.234Z,31.13
2023-03-03T23:30:28.989Z,30.00
2023-03-03T23:35:32.246Z,28.53
2023-03-03T23:40:35.563Z,31.00
2023-03-03T23:45:40.203Z,29.83
2023-03-03T23:50:43.437Z,30.03
2023-03-03T23:55:46.828Z,28.40
